createdAt,value
2022-12-31T00:00:02.524Z,95492
2022-12-31T00:01:05.035Z,95487
2022-12-31T00:02:08.124Z,95487.1
2022-12-31T00:03:11.620Z,95491.8
2022-12-31T00:04:14.443Z,95487.6
2022-12-31T00:05:17.044Z,95495.5
2022-12-31T00:06:19.295Z,95494.1
2022-12-31T00:07:21.298Z,95496.8
2022-12-31T00:08:23.576Z,95489.4
2022-12-31T00:09:26.152Z,95490.8
2022-12-31T00:10:28.346Z,95493.1
2022-12-31T00:11:30.589Z,95486.7
2022-12-31T00:12:32.840Z,95492.9
2022-12-31T00:13:35.339Z,95489
2022-12-31T00:14:37.851Z,95494.7
2022-12-31T00:15:40.080Z,95497
2022-12-31T00:16:42.613Z,95492.5
2022-12-31T00:17:44.964Z,95491.6
2022-12-31T00:18:47.493Z,95488.8
2022-12-31T00:19:50.091Z,95487.1
2022-12-31T00:20:52.624Z,95491.1
2022-12-31T00:21:54.859Z,95493.3
2022-12-31T00:22:57.102Z,95496.3
2022-12-31T00:23:59.371Z,95499
2022-12-31T00:25:01.892Z,95491.1
2022-12-31T00:26:04.448Z,95496.3
2022-12-31T00:27:07.019Z,95495.3
2022-12-31T00:28:09.262Z,95488.9
2022-12-31T00:29:11.811Z,95491
2022-12-31T00:30:14.600Z,95489.7
2022-12-31T00:31:17.473Z,95489.8
2022-12-31T00:32:19.770Z,95495.7
2022-12-31T00:33:22.283Z,95493.9
2022-12-31T00:34:24.812Z,95495.4
2022-12-31T00:35:27.259Z,95497.8
2022-12-31T00:36:29.898Z,95501.6
2022-12-31T00:37:32.138Z,95505.1
2022-12-31T00:38:34.658Z,95503.7
2022-12-31T00:39:36.869Z,95502.5
2022-12-31T00:40:39.082Z,95509.4
2022-12-31T00:41:41.619Z,95500.3
2022-12-31T00:42:43.933Z,95510.6
2022-12-31T00:43:46.454Z,95519.3
2022-12-31T00:44:48.971Z,95513
2022-12-31T00:45:51.408Z,95516.1
2022-12-31T00:46:53.498Z,95513.5
2022-12-31T00:47:55.809Z,95517.2
2022-12-31T00:48:58.332Z,95525.8
2022-12-31T00:50:00.613Z,95526.3
2022-12-31T00:51:03.196Z,95527.3
2022-12-31T00:52:05.702Z,95525.3
2022-12-31T00:53:08.279Z,95529
2022-12-31T00:54:10.537Z,95537.8
2022-12-31T00:55:12.766Z,95536.2
2022-12-31T00:56:15.310Z,95542.6
2022-12-31T00:57:17.300Z,95543.4
2022-12-31T00:58:19.832Z,95554.8
2022-12-31T00:59:22.055Z,95556.4
2022-12-31T01:00:24.273Z,95555
2022-12-31T01:01:27.351Z,95553.8
2022-12-31T01:02:31.162Z,95556.5
2022-12-31T01:03:33.866Z,95558.3
2022-12-31T01:04:36.545Z,95548.2
2022-12-31T01:05:38.494Z,95553.8
2022-12-31T01:06:41.078Z,95553
2022-12-31T01:07:43.649Z,95561.4
2022-12-31T01:08:46.181Z,95555.6
2022-12-31T01:09:48.716Z,95552.2
2022-12-31T01:10:50.994Z,95555.8
2022-12-31T01:11:53.529Z,95553.6
2022-12-31T01:12:56.043Z,95553.3
2022-12-31T01:13:58.595Z,95562.8
2022-12-31T01:15:01.115Z,95567.1
2022-12-31T01:16:04.018Z,95561.4
2022-12-31T01:17:06.360Z,95571.8
2022-12-31T01:18:08.867Z,95565.6
2022-12-31T01:19:11.317Z,95569.6
2022-12-31T01:20:14.064Z,95578.1
2022-12-31T01:21:16.359Z,95575.2
2022-12-31T01:22:18.947Z,95580.8
2022-12-31T01:23:21.202Z,95579.2
2022-12-31T01:24:23.461Z,95574.9
2022-12-31T01:25:25.710Z,95578.1
2022-12-31T01:26:28.288Z,95580.6
2022-12-31T01:27:30.799Z,95586.6
2022-12-31T01:28:33.356Z,95584.8
2022-12-31T01:29:35.693Z,95584.3
2022-12-31T01:30:38.511Z,95585.6
2022-12-31T01:31:41.075Z,95584.1
2022-12-31T01:32:43.563Z,95582.4
2022-12-31T01:33:45.840Z,95592.8
2022-12-31T01:34:48.338Z,95590.9
2022-12-31T01:35:50.549Z,95591.2
2022-12-31T01:36:53.153Z,95597.2
2022-12-31T01:37:55.747Z,95603
2022-12-31T01:38:58.347Z,95601.8
2022-12-31T01:40:00.570Z,95609.4
2022-12-31T01:41:02.813Z,95607.2
2022-12-31T01:42:05.026Z,95608
2022-12-31T01:43:07.235Z,95609.1
2022-12-31T01:44:09.755Z,95605.9
2022-12-31T01:45:12.291Z,95604.1
2022-12-31T01:46:14.973Z,95604.3
2022-12-31T01:47:17.547Z,95610.4
2022-12-31T01:48:20.060Z,95604.9
2022-12-31T01:49:22.472Z,95607.2
2022-12-31T01:50:24.751Z,95617.6
2022-12-31T01:51:27.286Z,95607.8
2022-12-31T01:52:29.828Z,95608.6
2022-12-31T01:53:32.427Z,95604.8
2022-12-31T01:54:34.720Z,95606.2
2022-12-31T01:55:37.221Z,95605.3
2022-12-31T01:56:39.478Z,95602.5
2022-12-31T01:57:41.967Z,95609.2
2022-12-31T01:58:44.519Z,95607.2
2022-12-31T01:59:47.131Z,95607
2022-12-31T02:00:49.706Z,95599.1
2022-12-31T02:01:52.425Z,95601.9
2022-12-31T02:02:55.514Z,95607.6
2022-12-31T02:03:58.088Z,95607.6
2022-12-31T02:05:00.715Z,95607.1
2022-12-31T02:06:03.227Z,95606.5
2022-12-31T02:07:05.507Z,95610.3
2022-12-31T02:08:07.491Z,95609.3
2022-12-31T02:09:09.545Z,95607.2
2022-12-31T02:10:11.816Z,95601.2
2022-12-31T02:11:14.320Z,95600.2
2022-12-31T02:12:16.835Z,95604.8
2022-12-31T02:13:19.042Z,95607.5
2022-12-31T02:14:21.279Z,95611.4
2022-12-31T02:15:23.777Z,95603
2022-12-31T02:16:26.241Z,95607.8
2022-12-31T02:17:28.819Z,95602.5
2022-12-31T02:18:31.068Z,95604.3
2022-12-31T02:19:33.572Z,95596.1
2022-12-31T02:20:36.137Z,95598.9
2022-12-31T02:21:38.556Z,95601
2022-12-31T02:22:41.438Z,95603.3
2022-12-31T02:23:44.104Z,95602.7
2022-12-31T02:24:46.387Z,95601.1
2022-12-31T02:25:48.915Z,95605.3
2022-12-31T02:26:51.435Z,95604.2
2022-12-31T02:27:53.953Z,95603
2022-12-31T02:28:56.195Z,95599.2
2022-12-31T02:29:58.729Z,95599
2022-12-31T02:31:00.781Z,95598.7
2022-12-31T02:32:03.156Z,95597.8
2022-12-31T02:33:05.412Z,95597.4
2022-12-31T02:34:07.362Z,95599.8
2022-12-31T02:35:09.644Z,95597
2022-12-31T02:36:12.153Z,95597
2022-12-31T02:37:14.648Z,95594.5
2022-12-31T02:38:17.163Z,95602.4
2022-12-31T02:39:19.371Z,95600.8
2022-12-31T02:40:21.964Z,95603.9
2022-12-31T02:41:24.510Z,95602.9
2022-12-31T02:42:27.006Z,95598.7
2022-12-31T02:43:29.523Z,95601.6
2022-12-31T02:44:32.052Z,95601.7
2022-12-31T02:45:34.607Z,95599.9
2022-12-31T02:46:37.216Z,95599.3
2022-12-31T02:47:39.557Z,95599.5
2022-12-31T02:48:41.829Z,95599
2022-12-31T02:49:44.072Z,95595.1
2022-12-31T02:50:46.580Z,95601.7
2022-12-31T02:51:48.831Z,95599.4
2022-12-31T02:52:51.316Z,95598.7
2022-12-31T02:53:53.564Z,95598.5
2022-12-31T02:54:55.525Z,95600.8
2022-12-31T02:55:57.550Z,95595.3
2022-12-31T02:57:00.115Z,95599.4
2022-12-31T02:58:02.336Z,95598.5
2022-12-31T02:59:04.878Z,95594.8
2022-12-31T03:00:06.845Z,95598.6
2022-12-31T03:01:09.154Z,95594.3
2022-12-31T03:02:12.499Z,95596.9
2022-12-31T03:03:15.219Z,95596.8
2022-12-31T03:04:17.468Z,95597.4
2022-12-31T03:05:19.738Z,95598.2
2022-12-31T03:06:22.266Z,95603
2022-12-31T03:07:24.547Z,95595.1
2022-12-31T03:08:27.113Z,95598.2
2022-12-31T03:09:29.329Z,95602.1
2022-12-31T03:10:31.581Z,95602.6
2022-12-31T03:11:34.187Z,95594.7
2022-12-31T03:12:36.717Z,95597.5
2022-12-31T03:13:39.237Z,95598.6
2022-12-31T03:14:41.723Z,95601
2022-12-31T03:15:43.683Z,95603.6
2022-12-31T03:16:45.906Z,95600.4
2022-12-31T03:17:47.849Z,95607.2
2022-12-31T03:18:50.100Z,95606.2
2022-12-31T03:19:52.640Z,95604.4
2022-12-31T03:20:55.136Z,95606.9
2022-12-31T03:21:57.640Z,95614.8
2022-12-31T03:22:59.022Z,95610.1
2022-12-31T03:24:01.529Z,95614.7
2022-12-31T03:25:03.780Z,95614.9
2022-12-31T03:26:05.728Z,95613.4
2022-12-31T03:27:08.328Z,95615.2
2022-12-31T03:28:10.863Z,95610.3
2022-12-31T03:29:12.568Z,95616.4
2022-12-31T03:30:15.265Z,95611.5
2022-12-31T03:31:18.285Z,95619.9
2022-12-31T03:32:21.001Z,95624.6
2022-12-31T03:33:23.223Z,95624.9
2022-12-31T03:34:25.771Z,95627.2
2022-12-31T03:35:28.290Z,95632.1
2022-12-31T03:36:30.793Z,95636.3
2022-12-31T03:37:33.328Z,95634.5
2022-12-31T03:38:35.849Z,95637.1
2022-12-31T03:39:38.058Z,95629.9
2022-12-31T03:40:40.594Z,95635
2022-12-31T03:41:43.106Z,95629.5
2022-12-31T03:42:45.465Z,95637.2
2022-12-31T03:43:48.011Z,95640.1
2022-12-31T03:44:50.501Z,95640.5
2022-12-31T03:45:53.707Z,95639.8
2022-12-31T03:46:56.307Z,95645
2022-12-31T03:47:58.803Z,95639.7
2022-12-31T03:49:01.331Z,95640.3
2022-12-31T03:50:03.899Z,95641.8
2022-12-31T03:51:06.128Z,95644.3
2022-12-31T03:52:08.342Z,95641.7
2022-12-31T03:53:10.663Z,95634.7
2022-12-31T03:54:13.313Z,95645.4
2022-12-31T03:55:15.574Z,95641
2022-12-31T03:56:18.109Z,95638.6
2022-12-31T03:57:20.656Z,95637.7
2022-12-31T03:58:23.379Z,95636.7
2022-12-31T03:59:25.893Z,95637
2022-12-31T04:00:28.402Z,95650.8
2022-12-31T04:01:31.299Z,95647
2022-12-31T04:02:34.845Z,95650.4
2022-12-31T04:03:37.531Z,95650.4
2022-12-31T04:04:39.758Z,95650.5
2022-12-31T04:05:42.039Z,95646.6
2022-12-31T04:06:44.543Z,95648.4
2022-12-31T04:07:47.050Z,95646.9
2022-12-31T04:08:49.314Z,95652.9
2022-12-31T04:09:51.574Z,95652.6
2022-12-31T04:10:53.856Z,95648.3
2022-12-31T04:11:56.370Z,95651.1
2022-12-31T04:12:58.902Z,95655.3
2022-12-31T04:14:01.208Z,95651
2022-12-31T04:15:03.853Z,95648.6
2022-12-31T04:16:06.522Z,95654.2
2022-12-31T04:17:09.115Z,95651.7
2022-12-31T04:18:11.431Z,95662.7
2022-12-31T04:19:13.961Z,95660.7
2022-12-31T04:20:16.500Z,95666.6
2022-12-31T04:21:19.053Z,95667.6
2022-12-31T04:22:21.289Z,95671
2022-12-31T04:23:23.791Z,95673.7
2022-12-31T04:24:26.310Z,95671.8
2022-12-31T04:25:28.540Z,95674.2
2022-12-31T04:26:30.756Z,95673.5
2022-12-31T04:27:33.256Z,95678.4
2022-12-31T04:28:35.780Z,95682.1
2022-12-31T04:29:38.354Z,95679.4
2022-12-31T04:30:40.886Z,95684.6
2022-12-31T04:31:43.758Z,95681.1
2022-12-31T04:32:46.052Z,95686
2022-12-31T04:33:48.578Z,95682.8
2022-12-31T04:34:51.128Z,95686
2022-12-31T04:35:53.350Z,95683.4
2022-12-31T04:36:55.865Z,95681.3
2022-12-31T04:37:58.413Z,95681.1
2022-12-31T04:39:00.641Z,95688.1
2022-12-31T04:41:07.574Z,95688.2
2022-12-31T04:42:10.146Z,95687.4
2022-12-31T04:43:12.362Z,95688.1
2022-12-31T04:44:14.603Z,95692.9
2022-12-31T04:45:17.216Z,95686.4
2022-12-31T04:46:20.092Z,95697
2022-12-31T04:48:27.759Z,95695.3
2022-12-31T04:49:29.974Z,95685.4
2022-12-31T04:50:32.481Z,95697.1
2022-12-31T04:51:34.712Z,95699.1
2022-12-31T04:53:41.942Z,95696
2022-12-31T04:54:44.503Z,95701.3
2022-12-31T04:55:47.029Z,95704.2
2022-12-31T04:56:48.996Z,95698.9
2022-12-31T04:57:51.509Z,95699.4
2022-12-31T04:58:53.731Z,95705.7
2022-12-31T04:59:55.425Z,95701.8
2022-12-31T05:00:58.255Z,95700.5
2022-12-31T05:02:02.117Z,95704
2022-12-31T05:03:05.443Z,95698.4
2022-12-31T05:04:08.055Z,95702.9
2022-12-31T05:05:10.606Z,95690.1
2022-12-31T05:06:13.101Z,95702.3
2022-12-31T05:07:15.337Z,95698.9
2022-12-31T05:08:17.631Z,95701.1
2022-12-31T05:09:20.042Z,95698.7
2022-12-31T05:10:22.557Z,95697.5
2022-12-31T05:11:25.049Z,95695.1
2022-12-31T05:12:27.549Z,95693.3
2022-12-31T05:14:34.785Z,95701.2
2022-12-31T05:15:37.002Z,95701.5
2022-12-31T05:16:39.751Z,95699.7
2022-12-31T05:17:42.412Z,95700.6
2022-12-31T05:18:44.920Z,95702.7
2022-12-31T05:19:47.444Z,95700.5
2022-12-31T05:20:49.975Z,95698.8
2022-12-31T05:21:52.509Z,95705.9
2022-12-31T05:22:55.010Z,95703.1
2022-12-31T05:23:57.554Z,95703.4
2022-12-31T05:25:00.129Z,95703.7
2022-12-31T05:26:02.704Z,95706.7
2022-12-31T05:27:05.238Z,95707.5
2022-12-31T05:28:07.459Z,95709.7
2022-12-31T05:29:09.983Z,95710.9
2022-12-31T05:30:11.922Z,95709.1
2022-12-31T05:31:14.742Z,95717.9
2022-12-31T05:32:17.408Z,95719.6
2022-12-31T05:33:19.936Z,95723.2
2022-12-31T05:34:22.446Z,95722.1
2022-12-31T05:35:24.679Z,95720.9
2022-12-31T05:36:26.888Z,95724.9
2022-12-31T05:37:29.121Z,95722.2
2022-12-31T05:38:31.383Z,95724.1
2022-12-31T05:39:33.906Z,95724.7
2022-12-31T05:40:36.132Z,95725.5
2022-12-31T05:41:38.633Z,95722.1
2022-12-31T05:42:40.906Z,95720.5
2022-12-31T05:43:43.209Z,95717.5
2022-12-31T05:44:45.729Z,95716
2022-12-31T05:45:48.209Z,95716.7
2022-12-31T05:46:50.526Z,95713.3
2022-12-31T05:47:53.133Z,95714.8
2022-12-31T05:48:55.659Z,95706.8
2022-12-31T05:49:57.929Z,95704.6
2022-12-31T05:51:00.159Z,95705.8
2022-12-31T05:52:02.716Z,95707.1
2022-12-31T05:53:04.986Z,95699.4
2022-12-31T05:54:07.524Z,95696.9
2022-12-31T05:55:09.789Z,95702.1
2022-12-31T05:56:12.019Z,95699.4
2022-12-31T05:57:14.266Z,95699
2022-12-31T05:58:16.836Z,95699.6
2022-12-31T05:59:18.503Z,95697.7
2022-12-31T06:00:21.093Z,95698.3
2022-12-31T06:01:23.682Z,95692.9
2022-12-31T06:02:26.601Z,95694.1
2022-12-31T06:03:29.418Z,95700.8
2022-12-31T06:04:31.745Z,95697.5
2022-12-31T06:05:34.256Z,95700.1
2022-12-31T06:06:36.769Z,95704.5
2022-12-31T06:07:39.282Z,95708.2
2022-12-31T06:08:41.556Z,95709.6
2022-12-31T06:09:43.800Z,95711.3
2022-12-31T06:10:46.345Z,95715.2
2022-12-31T06:11:48.874Z,95718.3
2022-12-31T06:12:50.800Z,95719.7
2022-12-31T06:13:53.026Z,95726.3
2022-12-31T06:14:55.274Z,95726
2022-12-31T06:15:57.526Z,95726.5
2022-12-31T06:17:00.124Z,95729.4
2022-12-31T06:18:02.086Z,95728.4
2022-12-31T06:19:04.396Z,95726
2022-12-31T06:21:11.920Z,95729.2
2022-12-31T06:22:14.436Z,95733.3
2022-12-31T06:23:16.954Z,95734.4
2022-12-31T06:24:19.556Z,95730.8
2022-12-31T06:25:22.081Z,95733.2
2022-12-31T06:26:24.386Z,95743.2
2022-12-31T06:27:26.880Z,95735.2
2022-12-31T06:28:29.095Z,95741
2022-12-31T06:29:31.036Z,95741.8
2022-12-31T06:30:33.253Z,95744.4
2022-12-31T06:31:35.723Z,95746.7
2022-12-31T06:32:38.306Z,95748.2
2022-12-31T06:33:40.244Z,95743.3
2022-12-31T06:34:42.802Z,95749.7
2022-12-31T06:35:45.073Z,95752.2
2022-12-31T06:36:47.583Z,95753.3
2022-12-31T06:37:50.100Z,95756.1
2022-12-31T06:38:52.595Z,95753.3
2022-12-31T06:39:54.828Z,95759.1
2022-12-31T06:40:57.374Z,95750.4
2022-12-31T06:41:59.647Z,95751.4
2022-12-31T06:43:01.952Z,95751.7
2022-12-31T06:44:04.181Z,95750.5
2022-12-31T06:45:06.429Z,95750
2022-12-31T06:46:09.010Z,95750.7
2022-12-31T06:47:11.648Z,95749.5
2022-12-31T06:48:14.155Z,95753.1
2022-12-31T06:49:16.365Z,95749.7
2022-12-31T06:50:18.763Z,95750.5
2022-12-31T06:51:21.303Z,95752.1
2022-12-31T06:52:23.830Z,95750.5
2022-12-31T06:53:26.088Z,95751.9
2022-12-31T06:54:28.628Z,95751.3
2022-12-31T06:55:30.883Z,95751.3
2022-12-31T06:57:38.218Z,95755.2
2022-12-31T06:58:40.440Z,95750.5
2022-12-31T06:59:42.989Z,95748.6
2022-12-31T07:00:45.499Z,95748.2
2022-12-31T07:01:48.623Z,95750.5
2022-12-31T07:02:51.962Z,95751.5
2022-12-31T07:03:54.666Z,95749.9
2022-12-31T07:04:57.185Z,95747.7
2022-12-31T07:05:59.491Z,95752.3
2022-12-31T07:07:02.041Z,95755
2022-12-31T07:08:04.563Z,95760.3
2022-12-31T07:09:06.911Z,95758.8
2022-12-31T07:10:09.164Z,95763.5
2022-12-31T07:11:11.373Z,95768.3
2022-12-31T07:12:13.925Z,95768.9
2022-12-31T07:13:16.168Z,95765.1
2022-12-31T07:14:18.557Z,95768.8
2022-12-31T07:15:20.805Z,95769.3
2022-12-31T07:16:23.585Z,95764.5
2022-12-31T07:17:26.159Z,95764.4
2022-12-31T07:18:28.707Z,95768.7
2022-12-31T07:19:31.220Z,95770.9
2022-12-31T07:20:33.471Z,95772.7
2022-12-31T07:21:36.100Z,95774.9
2022-12-31T07:22:38.665Z,95775.7
2022-12-31T07:23:41.169Z,95771.6
2022-12-31T07:24:43.693Z,95776.6
2022-12-31T07:25:46.169Z,95775.1
2022-12-31T07:27:53.690Z,95773.6
2022-12-31T07:28:56.269Z,95780.7
2022-12-31T07:29:58.537Z,95780.5
2022-12-31T07:31:00.973Z,95781.5
2022-12-31T07:32:03.320Z,95782.2
2022-12-31T07:33:05.584Z,95783.3
2022-12-31T07:34:07.567Z,95784.5
2022-12-31T07:35:10.116Z,95791.3
2022-12-31T07:36:12.659Z,95786.8
2022-12-31T07:37:15.262Z,95786.6
2022-12-31T07:38:17.536Z,95788.6
2022-12-31T07:39:20.033Z,95788.3
2022-12-31T07:40:22.601Z,95790.6
2022-12-31T07:41:24.858Z,95789.4
2022-12-31T07:42:27.080Z,95789.3
2022-12-31T07:43:29.579Z,95787.8
2022-12-31T07:44:32.105Z,95788.9
2022-12-31T07:45:34.628Z,95793.2
2022-12-31T07:46:37.363Z,95796.5
2022-12-31T07:47:39.649Z,95796.8
2022-12-31T07:48:42.169Z,95796
2022-12-31T07:49:44.720Z,95793.1
2022-12-31T07:50:47.220Z,95788.4
2022-12-31T07:51:49.707Z,95795.6
2022-12-31T07:52:52.271Z,95798.2
2022-12-31T07:53:54.908Z,95798.5
2022-12-31T07:54:57.149Z,95800.5
2022-12-31T07:55:59.657Z,95807.1
2022-12-31T07:57:01.934Z,95810
2022-12-31T07:58:04.242Z,95809
2022-12-31T07:59:06.808Z,95807.4
2022-12-31T08:00:09.361Z,95812
2022-12-31T08:01:12.312Z,95808.9
2022-12-31T08:02:15.978Z,95807.9
2022-12-31T08:03:18.509Z,95808.7
2022-12-31T08:04:21.117Z,95803.2
2022-12-31T08:05:23.388Z,95808.4
2022-12-31T08:06:25.618Z,95812.7
2022-12-31T08:07:27.849Z,95807.1
2022-12-31T08:08:30.437Z,95811.2
2022-12-31T08:09:32.987Z,95814.5
2022-12-31T08:10:34.937Z,95810.9
2022-12-31T08:11:37.463Z,95812.9
2022-12-31T08:12:39.971Z,95812.1
2022-12-31T08:13:42.203Z,95810.6
2022-12-31T08:14:43.846Z,95813
2022-12-31T08:15:46.098Z,95813.3
2022-12-31T08:16:48.477Z,95817.1
2022-12-31T08:17:51.088Z,95816.1
2022-12-31T08:18:53.638Z,95817.9
2022-12-31T08:19:55.877Z,95819.9
2022-12-31T08:20:58.095Z,95820.9
2022-12-31T08:22:00.615Z,95814.8
2022-12-31T08:23:03.115Z,95817.5
2022-12-31T08:24:05.153Z,95819.9
2022-12-31T08:25:07.166Z,95816.7
2022-12-31T08:26:09.789Z,95816.3
2022-12-31T08:27:12.027Z,95817.1
2022-12-31T08:28:14.527Z,95819.1
2022-12-31T08:29:17.044Z,95815.4
2022-12-31T08:30:19.556Z,95817.3
2022-12-31T08:31:22.467Z,95820.2
2022-12-31T08:32:25.031Z,95819.9
2022-12-31T08:33:27.573Z,95822.7
2022-12-31T08:34:29.517Z,95822.3
2022-12-31T08:35:32.047Z,95821.9
2022-12-31T08:36:34.523Z,95822.2
2022-12-31T08:37:36.459Z,95819.6
2022-12-31T08:38:38.720Z,95813.6
2022-12-31T08:39:41.347Z,95810.2
2022-12-31T08:40:44.052Z,95813.1
2022-12-31T08:41:46.287Z,95811.3
2022-12-31T08:42:48.531Z,95814.1
2022-12-31T08:43:50.773Z,95822.8
2022-12-31T08:44:53.039Z,95822
2022-12-31T08:45:55.799Z,95814.9
2022-12-31T08:46:58.398Z,95818.5
2022-12-31T08:48:01.833Z,95814.9
2022-12-31T08:49:04.353Z,95814.7
2022-12-31T08:50:06.604Z,95813.7
2022-12-31T08:51:09.111Z,95811
2022-12-31T08:52:11.347Z,95810.5
2022-12-31T08:53:13.846Z,95814.4
2022-12-31T08:54:16.598Z,95806.4
2022-12-31T08:55:19.173Z,95811.3
2022-12-31T08:56:21.754Z,95812.4
2022-12-31T08:57:24.006Z,95812.5
2022-12-31T08:58:26.528Z,95809.2
2022-12-31T08:59:29.032Z,95812.1
2022-12-31T09:00:31.597Z,95814.7
2022-12-31T09:01:33.748Z,95812
2022-12-31T09:02:35.994Z,95815.4
2022-12-31T09:03:38.243Z,95816.7
2022-12-31T09:04:40.464Z,95822.4
2022-12-31T09:05:42.696Z,95822
2022-12-31T09:06:44.926Z,95825
2022-12-31T09:07:47.187Z,95825.1
2022-12-31T09:08:49.134Z,95826
2022-12-31T09:09:51.382Z,95823.8
2022-12-31T09:10:53.707Z,95825.7
2022-12-31T09:11:56.227Z,95826.7
2022-12-31T09:12:58.734Z,95827.7
2022-12-31T09:14:01.293Z,95827.9
2022-12-31T09:15:02.991Z,95830.5
2022-12-31T09:16:05.541Z,95834.8
2022-12-31T09:17:07.596Z,95837.1
2022-12-31T09:18:10.169Z,95835.6
2022-12-31T09:19:12.695Z,95834.8
2022-12-31T09:20:14.966Z,95835
2022-12-31T09:21:17.225Z,95833.8
2022-12-31T09:22:19.476Z,95834.4
2022-12-31T09:23:21.983Z,95832.5
2022-12-31T09:24:24.512Z,95841.5
2022-12-31T09:25:27.038Z,95839.9
2022-12-31T09:26:29.064Z,95838.2
2022-12-31T09:27:31.609Z,95839.9
2022-12-31T09:28:34.111Z,95834.6
2022-12-31T09:29:36.091Z,95838.4
2022-12-31T09:30:38.041Z,95835.3
2022-12-31T09:31:40.387Z,95835
2022-12-31T09:32:42.687Z,95837
2022-12-31T09:33:45.223Z,95838.6
2022-12-31T09:34:47.748Z,95834.1
2022-12-31T09:35:50.012Z,95833.2
2022-12-31T09:36:52.561Z,95832.5
2022-12-31T09:37:54.531Z,95832.6
2022-12-31T09:38:56.773Z,95837.2
2022-12-31T09:39:58.729Z,95838
2022-12-31T09:41:01.255Z,95838.9
2022-12-31T09:42:03.917Z,95834.9
2022-12-31T09:43:06.521Z,95836.4
2022-12-31T09:44:09.029Z,95838.9
2022-12-31T09:45:11.298Z,95834.1
2022-12-31T09:46:13.840Z,95834.3
2022-12-31T09:47:16.463Z,95839.5
2022-12-31T09:48:19.143Z,95829.9
2022-12-31T09:49:21.429Z,95828.8
2022-12-31T09:50:23.954Z,95825
2022-12-31T09:51:27.257Z,95824.4
2022-12-31T09:52:29.784Z,95820.5
2022-12-31T09:53:31.726Z,95820.7
2022-12-31T09:54:34.268Z,95823.3
2022-12-31T09:55:36.768Z,95821.8
2022-12-31T09:56:39.290Z,95821.7
2022-12-31T09:57:41.964Z,95823.3
2022-12-31T09:58:44.519Z,95821.9
2022-12-31T09:59:47.037Z,95821.3
2022-12-31T10:00:49.602Z,95826
2022-12-31T10:01:52.737Z,95827.1
2022-12-31T10:02:55.558Z,95826.6
2022-12-31T10:03:58.244Z,95827.8
2022-12-31T10:05:00.604Z,95830.1
2022-12-31T10:06:02.564Z,95826.7
2022-12-31T10:07:05.057Z,95830.4
2022-12-31T10:08:07.033Z,95830.9
2022-12-31T10:09:09.271Z,95822.2
2022-12-31T10:10:11.790Z,95823.4
2022-12-31T10:11:14.330Z,95819.5
2022-12-31T10:12:16.589Z,95818.1
2022-12-31T10:13:19.166Z,95818.3
2022-12-31T10:14:21.464Z,95816.4
2022-12-31T10:15:23.981Z,95815.4
2022-12-31T10:16:26.499Z,95816.9
2022-12-31T10:17:29.169Z,95817.2
2022-12-31T10:18:31.403Z,95814.3
2022-12-31T10:19:33.629Z,95815.1
2022-12-31T10:21:41.129Z,95811.4
2022-12-31T10:22:43.646Z,95812.8
2022-12-31T10:23:45.888Z,95805.9
2022-12-31T10:24:48.412Z,95806.5
2022-12-31T10:25:52.317Z,95811.2
2022-12-31T10:26:54.906Z,95811.9
2022-12-31T10:27:57.478Z,95803.7
2022-12-31T10:29:00.061Z,95804.3
2022-12-31T10:30:02.622Z,95803.8
2022-12-31T10:31:05.283Z,95801.8
2022-12-31T10:32:07.941Z,95801.6
2022-12-31T10:33:10.169Z,95800.3
2022-12-31T10:34:12.146Z,95801.1
2022-12-31T10:35:14.678Z,95803.8
2022-12-31T10:36:17.452Z,95803.1
2022-12-31T10:37:19.965Z,95801.8
2022-12-31T10:38:22.487Z,95804.9
2022-12-31T10:39:26.200Z,95802.6
2022-12-31T10:40:28.443Z,95802.9
2022-12-31T10:41:30.410Z,95806.1
2022-12-31T10:42:32.625Z,95801.7
2022-12-31T10:43:35.141Z,95803.4
2022-12-31T10:44:37.447Z,95802.5
2022-12-31T10:45:40.023Z,95803.5
2022-12-31T10:46:42.715Z,95804.1
2022-12-31T10:47:45.007Z,95804.7
2022-12-31T10:48:46.965Z,95804.5
2022-12-31T10:49:49.462Z,95802.9
2022-12-31T10:50:51.999Z,95808.4
2022-12-31T10:51:53.978Z,95810.8
2022-12-31T10:52:56.492Z,95804
2022-12-31T10:53:59.047Z,95807.4
2022-12-31T10:55:01.575Z,95805.5
2022-12-31T10:56:03.807Z,95802.7
2022-12-31T10:57:06.056Z,95804.8
2022-12-31T10:58:08.016Z,95801.9
2022-12-31T10:59:10.549Z,95803.1
2022-12-31T11:00:13.240Z,95805.4
2022-12-31T11:01:15.744Z,95799.5
2022-12-31T11:02:18.857Z,95807.5
2022-12-31T11:04:26.803Z,95797.1
2022-12-31T11:05:29.320Z,95795.8
2022-12-31T11:06:31.852Z,95794.5
2022-12-31T11:07:34.117Z,95795.1
2022-12-31T11:08:36.373Z,95794.4
2022-12-31T11:09:38.627Z,95792.8
2022-12-31T11:10:41.141Z,95791.8
2022-12-31T11:11:43.381Z,95790.6
2022-12-31T11:12:45.632Z,95786.4
2022-12-31T11:13:47.880Z,95789.8
2022-12-31T11:14:49.865Z,95789.2
2022-12-31T11:15:52.324Z,95790
2022-12-31T11:16:54.921Z,95787.3
2022-12-31T11:17:57.437Z,95785.5
2022-12-31T11:18:59.964Z,95789.9
2022-12-31T11:20:02.232Z,95785
2022-12-31T11:21:04.780Z,95786.8
2022-12-31T11:22:07.041Z,95782.8
2022-12-31T11:23:09.582Z,95785
2022-12-31T11:24:12.087Z,95784.4
2022-12-31T11:25:14.305Z,95784.2
2022-12-31T11:26:16.788Z,95777
2022-12-31T11:27:19.311Z,95777.3
2022-12-31T11:28:21.840Z,95773.5
2022-12-31T11:29:24.413Z,95773.7
2022-12-31T11:30:26.650Z,95774.2
2022-12-31T11:31:29.573Z,95773.9
2022-12-31T11:32:32.154Z,95768.1
2022-12-31T11:33:34.381Z,95766.9
2022-12-31T11:34:36.335Z,95765
2022-12-31T11:35:38.687Z,95766.4
2022-12-31T11:36:41.274Z,95765.5
2022-12-31T11:37:43.858Z,95764.6
2022-12-31T11:38:46.422Z,95768.5
2022-12-31T11:39:48.931Z,95766.9
2022-12-31T11:40:51.183Z,95767
2022-12-31T11:41:53.692Z,95765.2
2022-12-31T11:42:55.652Z,95761.4
2022-12-31T11:43:57.942Z,95760.7
2022-12-31T11:45:00.202Z,95757.2
2022-12-31T11:46:02.979Z,95752.6
2022-12-31T11:47:05.615Z,95757.2
2022-12-31T11:49:13.132Z,95750.8
2022-12-31T11:50:15.526Z,95750.4
2022-12-31T11:51:18.045Z,95751.3
2022-12-31T11:53:25.533Z,95749.4
2022-12-31T11:54:27.817Z,95739.3
2022-12-31T11:55:30.335Z,95742.6
2022-12-31T11:56:32.909Z,95738.9
2022-12-31T11:57:35.155Z,95732.7
2022-12-31T11:58:37.675Z,95734.7
2022-12-31T11:59:40.198Z,95728.8
2022-12-31T12:00:42.720Z,95733.9
2022-12-31T12:01:45.079Z,95727.2
2022-12-31T12:02:47.561Z,95728.1
2022-12-31T12:03:50.140Z,95719.9
2022-12-31T12:04:52.460Z,95723.8
2022-12-31T12:05:54.991Z,95728.9
2022-12-31T12:06:57.527Z,95723.6
2022-12-31T12:07:59.746Z,95721.8
2022-12-31T12:09:02.304Z,95719.2
2022-12-31T12:10:04.602Z,95720.1
2022-12-31T12:11:06.826Z,95721.1
2022-12-31T12:12:09.064Z,95719
2022-12-31T12:13:11.308Z,95719.3
2022-12-31T12:14:13.869Z,95719.9
2022-12-31T12:15:16.273Z,95723.2
2022-12-31T12:16:18.995Z,95722.1
2022-12-31T12:17:21.596Z,95719
2022-12-31T12:18:24.189Z,95723.1
2022-12-31T12:19:26.727Z,95719.5
2022-12-31T12:20:29.244Z,95722.1
2022-12-31T12:21:31.511Z,95722.5
2022-12-31T12:22:34.033Z,95722.9
2022-12-31T12:23:36.327Z,95718.1
2022-12-31T12:24:38.873Z,95723.3
2022-12-31T12:25:41.434Z,95727.2
2022-12-31T12:26:43.710Z,95721
2022-12-31T12:27:46.214Z,95724.4
2022-12-31T12:28:48.435Z,95724.7
2022-12-31T12:29:51.029Z,95725.6
2022-12-31T12:30:53.522Z,95725.6
2022-12-31T12:31:55.747Z,95728.4
2022-12-31T12:32:57.996Z,95726.8
2022-12-31T12:34:00.702Z,95724.8
2022-12-31T12:35:02.690Z,95734.6
2022-12-31T12:36:04.385Z,95728.8
2022-12-31T12:37:06.659Z,95729.2
2022-12-31T12:38:08.943Z,95728
2022-12-31T12:39:11.196Z,95730
2022-12-31T12:40:13.225Z,95735.3
2022-12-31T12:41:15.492Z,95724.9
2022-12-31T12:42:17.729Z,95714.1
2022-12-31T12:43:20.253Z,95720.8
2022-12-31T12:44:22.761Z,95714.3
2022-12-31T12:45:25.288Z,95718.8
2022-12-31T12:46:28.043Z,95719.8
2022-12-31T12:47:30.618Z,95718.6
2022-12-31T12:48:33.180Z,95718.1
2022-12-31T12:49:35.759Z,95720.7
2022-12-31T12:50:38.304Z,95725.6
2022-12-31T12:51:40.592Z,95719.4